createdAt,value
2022-12-08T00:02:22.859Z,9.03
2022-12-08T00:05:08.544Z,8.73
2022-12-08T00:07:56.934Z,9.73
2022-12-08T00:10:48.371Z,9.07
2022-12-08T00:13:13.526Z,8.50
2022-12-08T00:15:43.068Z,10.00
2022-12-08T00:18:11.185Z,9.10
2022-12-08T00:20:40.003Z,8.67
2022-12-08T00:23:08.054Z,8.27
2022-12-08T00:25:37.392Z,8.83
2022-12-08T00:28:05.819Z,8.63
2022-12-08T00:30:33.959Z,8.43
2022-12-08T00:33:03.381Z,8.23
2022-12-08T00:35:31.456Z,7.77
2022-12-08T00:38:00.983Z,8.30
2022-12-08T00:40:29.458Z,8.43
2022-12-08T00:42:57.654Z,9.13
2022-12-08T00:45:25.653Z,7.77
2022-12-08T00:47:53.660Z,9.07
2022-12-08T00:50:23.095Z,8.27
2022-12-08T00:52:51.149Z,8.77
2022-12-08T00:55:19.181Z,8.10
2022-12-08T00:57:47.369Z,8.23
2022-12-08T01:00:16.123Z,7.70
2022-12-08T01:02:44.356Z,8.27
2022-12-08T01:05:12.631Z,9.10
2022-12-08T01:07:42.197Z,8.30
2022-12-08T01:10:10.783Z,8.23
2022-12-08T01:12:38.867Z,7.97
2022-12-08T01:15:07.727Z,8.20
2022-12-08T01:17:35.768Z,7.70
2022-12-08T01:20:05.551Z,7.43
2022-12-08T01:23:06.040Z,7.87
2022-12-08T01:25:46.638Z,7.17
2022-12-08T01:28:14.701Z,6.93
2022-12-08T01:30:43.581Z,6.70
2022-12-08T01:33:11.777Z,7.27
2022-12-08T01:35:40.491Z,6.77
2022-12-08T01:38:09.991Z,6.43
2022-12-08T01:40:38.171Z,6.80
2022-12-08T01:43:06.262Z,6.30
2022-12-08T01:45:34.476Z,6.20
2022-12-08T01:48:06.087Z,7.10
2022-12-08T01:50:34.757Z,5.83
2022-12-08T01:53:08.259Z,6.23
2022-12-08T01:55:42.494Z,6.00
2022-12-08T01:58:14.880Z,5.80
2022-12-08T02:00:43.139Z,5.87
2022-12-08T02:03:14.628Z,5.97
2022-12-08T02:05:44.331Z,6.93
2022-12-08T02:08:14.069Z,6.40
2022-12-08T02:10:44.265Z,5.70
2022-12-08T02:13:14.762Z,6.33
2022-12-08T02:15:49.367Z,6.07
2022-12-08T02:18:29.998Z,6.13
2022-12-08T02:21:03.174Z,6.10
2022-12-08T02:23:38.214Z,6.00
2022-12-08T02:26:25.743Z,5.80
2022-12-08T02:29:08.357Z,6.60
2022-12-08T02:31:44.737Z,5.90
2022-12-08T02:34:20.516Z,5.73
2022-12-08T02:36:55.040Z,6.27
2022-12-08T02:39:29.609Z,5.73
2022-12-08T02:42:06.135Z,5.87
2022-12-08T02:44:38.210Z,6.30
2022-12-08T02:47:10.309Z,6.03
2022-12-08T02:49:39.839Z,5.60
2022-12-08T02:52:09.268Z,5.63
2022-12-08T02:54:37.545Z,6.37
2022-12-08T02:57:20.450Z,5.67
2022-12-08T03:00:02.623Z,6.07
2022-12-08T03:02:44.914Z,5.87
2022-12-08T03:05:24.916Z,5.93
2022-12-08T03:07:58.463Z,5.70
2022-12-08T03:10:30.869Z,5.53
2022-12-08T03:13:01.741Z,5.70
2022-12-08T03:15:31.244Z,5.60
2022-12-08T03:18:00.871Z,5.83
2022-12-08T03:20:31.477Z,6.23
2022-12-08T03:23:01.735Z,5.50
2022-12-08T03:25:32.973Z,5.10
2022-12-08T03:28:01.486Z,4.80
2022-12-08T03:30:30.916Z,5.30
2022-12-08T03:33:03.160Z,5.60
2022-12-08T03:35:35.241Z,5.57
2022-12-08T03:38:04.961Z,5.40
2022-12-08T03:40:33.136Z,5.10
2022-12-08T03:43:01.390Z,5.23
2022-12-08T03:45:29.666Z,5.03
2022-12-08T03:47:57.833Z,5.40
2022-12-08T03:50:26.220Z,5.47
2022-12-08T03:52:55.621Z,6.00
2022-12-08T03:55:23.723Z,5.90
2022-12-08T03:57:51.854Z,5.27
2022-12-08T04:00:20.315Z,5.00
2022-12-08T04:02:48.490Z,5.17
2022-12-08T04:05:16.766Z,4.90
2022-12-08T04:07:45.014Z,4.80
2022-12-08T04:10:14.601Z,4.40
2022-12-08T04:12:42.665Z,4.60
2022-12-08T04:15:12.167Z,4.67
2022-12-08T04:17:40.204Z,5.30
2022-12-08T04:20:08.841Z,4.80
2022-12-08T04:22:36.912Z,4.60
2022-12-08T04:25:06.096Z,5.00
2022-12-08T04:27:35.695Z,5.00
2022-12-08T04:30:04.134Z,4.73
2022-12-08T04:32:32.400Z,5.33
2022-12-08T04:35:00.494Z,5.10
2022-12-08T04:37:29.554Z,4.33
2022-12-08T04:39:57.742Z,5.07
2022-12-08T04:42:25.829Z,4.80
2022-12-08T04:44:55.349Z,5.70
2022-12-08T04:47:23.485Z,5.30
2022-12-08T04:49:51.589Z,5.37
2022-12-08T04:52:19.699Z,4.90
2022-12-08T04:54:47.773Z,5.67
2022-12-08T04:57:16.195Z,5.60
2022-12-08T04:59:44.316Z,5.80
2022-12-08T05:02:14.423Z,5.97
2022-12-08T05:04:42.746Z,6.07
2022-12-08T05:07:10.838Z,5.90
2022-12-08T05:09:39.048Z,6.60
2022-12-08T05:12:07.446Z,6.57
2022-12-08T05:14:35.620Z,6.40
2022-12-08T05:17:09.207Z,7.17
2022-12-08T05:19:39.121Z,6.53
2022-12-08T05:22:07.299Z,7.37
2022-12-08T05:24:35.357Z,7.40
2022-12-08T05:27:03.625Z,7.57
2022-12-08T05:29:31.651Z,8.47
2022-12-08T05:31:59.793Z,7.87
2022-12-08T05:34:28.022Z,8.20
2022-12-08T05:36:57.550Z,9.10
2022-12-08T05:39:25.821Z,7.73
2022-12-08T05:41:53.829Z,9.10
2022-12-08T05:44:22.076Z,8.77
2022-12-08T05:46:50.341Z,8.63
2022-12-08T05:49:18.561Z,8.67
2022-12-08T05:51:46.731Z,9.20
2022-12-08T05:54:16.324Z,8.30
2022-12-08T05:56:44.504Z,8.60
2022-12-08T05:59:12.638Z,9.37
2022-12-08T06:01:40.803Z,9.70
2022-12-08T06:04:08.967Z,9.73
2022-12-08T06:06:38.539Z,9.03
2022-12-08T06:09:07.347Z,9.20
2022-12-08T06:11:36.988Z,9.73
2022-12-08T06:14:05.245Z,9.67
2022-12-08T06:16:33.701Z,9.40
2022-12-08T06:19:01.995Z,9.43
2022-12-08T06:21:30.300Z,9.33
2022-12-08T06:23:58.500Z,9.77
2022-12-08T06:26:29.261Z,10.47
2022-12-08T06:29:08.625Z,10.70
2022-12-08T06:31:37.211Z,9.63
2022-12-08T06:34:06.274Z,10.27
2022-12-08T06:36:34.662Z,10.43
2022-12-08T06:39:02.972Z,10.63
2022-12-08T06:41:31.153Z,10.27
2022-12-08T06:44:00.722Z,10.67
2022-12-08T06:46:28.970Z,10.27
2022-12-08T06:48:57.208Z,9.70
2022-12-08T06:51:25.578Z,9.97
2022-12-08T06:53:53.796Z,10.70
2022-12-08T06:56:28.009Z,9.97
2022-12-08T06:58:56.194Z,10.03
2022-12-08T07:01:25.784Z,9.30
2022-12-08T07:03:53.898Z,8.80
2022-12-08T07:06:24.325Z,9.13
2022-12-08T07:08:52.349Z,9.37
2022-12-08T07:11:22.439Z,8.83
2022-12-08T07:13:51.316Z,8.47
2022-12-08T07:16:19.675Z,8.63
2022-12-08T07:18:49.276Z,8.10
2022-12-08T07:21:18.153Z,7.63
2022-12-08T07:23:50.157Z,8.60
2022-12-08T07:26:22.123Z,8.47
2022-12-08T07:28:50.169Z,8.30
2022-12-08T07:31:19.335Z,7.73
2022-12-08T07:33:48.833Z,7.33
2022-12-08T07:36:17.584Z,7.87
2022-12-08T07:38:45.886Z,7.37
2022-12-08T07:41:14.527Z,8.00
2022-12-08T07:43:42.740Z,7.27
2022-12-08T07:46:13.131Z,7.77
2022-12-08T07:48:41.333Z,7.10
2022-12-08T07:51:12.840Z,7.30
2022-12-08T07:53:42.695Z,6.93
2022-12-08T07:56:12.103Z,6.87
2022-12-08T07:58:40.611Z,7.00
2022-12-08T08:01:20.000Z,7.73
2022-12-08T08:03:48.291Z,7.30
2022-12-08T08:06:17.770Z,6.13
2022-12-08T08:08:46.198Z,5.70
2022-12-08T08:11:21.004Z,6.90
2022-12-08T08:13:49.902Z,7.00
2022-12-08T08:16:18.352Z,7.90
2022-12-08T08:18:48.130Z,7.77
2022-12-08T08:24:06.821Z,6.80
2022-12-08T08:26:35.387Z,6.57
2022-12-08T08:29:14.044Z,7.40
2022-12-08T08:31:42.768Z,7.00
2022-12-08T08:34:11.315Z,7.50
2022-12-08T08:36:45.529Z,7.27
2022-12-08T08:39:28.872Z,6.87
2022-12-08T08:41:59.574Z,7.60
2022-12-08T08:44:28.424Z,7.93
2022-12-08T08:46:58.222Z,7.73
2022-12-08T08:49:26.636Z,8.30
2022-12-08T08:51:56.462Z,9.13
2022-12-08T08:54:24.813Z,7.53
2022-12-08T08:56:53.500Z,8.73
2022-12-08T08:59:22.199Z,8.13
2022-12-08T09:01:50.579Z,8.90
2022-12-08T09:04:19.521Z,8.90
2022-12-08T09:06:48.872Z,8.33
2022-12-08T09:09:26.979Z,8.57
2022-12-08T09:11:58.757Z,8.27
2022-12-08T09:14:30.166Z,8.10
2022-12-08T09:16:58.949Z,8.00
2022-12-08T09:19:27.573Z,7.43
2022-12-08T09:21:58.837Z,10.17
2022-12-08T09:24:34.768Z,7.30
2022-12-08T09:27:03.097Z,7.20
2022-12-08T09:29:35.930Z,6.50
2022-12-08T09:32:07.122Z,6.43
2022-12-08T09:34:35.893Z,6.17
2022-12-08T09:37:04.643Z,9.97
2022-12-08T09:39:34.311Z,6.87
2022-12-08T09:42:07.108Z,6.80
2022-12-08T09:44:55.476Z,7.20
2022-12-08T09:47:28.326Z,7.80
2022-12-08T09:50:04.794Z,8.30
2022-12-08T09:52:38.035Z,8.47
2022-12-08T09:55:18.863Z,7.33
2022-12-08T09:57:56.681Z,7.40
2022-12-08T10:00:27.769Z,7.60
2022-12-08T10:03:01.295Z,7.23
2022-12-08T10:05:30.510Z,7.33
2022-12-08T10:08:04.767Z,6.47
2022-12-08T10:10:59.210Z,6.93
2022-12-08T10:13:39.521Z,6.87
2022-12-08T10:16:24.223Z,7.27
2022-12-08T10:19:02.268Z,6.07
2022-12-08T10:21:32.534Z,6.03
2022-12-08T10:24:10.729Z,4.67
2022-12-08T10:26:40.704Z,4.13
2022-12-08T10:29:11.488Z,5.17
2022-12-08T10:31:42.087Z,4.20
2022-12-08T10:34:19.776Z,3.97
2022-12-08T10:37:22.145Z,4.20
2022-12-08T10:40:00.588Z,4.33
2022-12-08T10:42:35.736Z,4.47
2022-12-08T10:45:21.588Z,4.67
2022-12-08T10:47:58.562Z,9.43
2022-12-08T10:50:35.236Z,6.13
2022-12-08T10:53:13.221Z,5.33
2022-12-08T10:55:44.277Z,5.63
2022-12-08T10:58:31.635Z,4.53
2022-12-08T11:01:03.144Z,4.83
2022-12-08T11:03:32.814Z,5.37
2022-12-08T11:06:08.904Z,5.17
2022-12-08T11:08:49.098Z,5.23
2022-12-08T11:11:17.698Z,5.43
2022-12-08T11:13:49.861Z,5.30
2022-12-08T11:16:19.530Z,5.83
2022-12-08T11:18:49.920Z,5.70
2022-12-08T11:21:20.231Z,5.50
2022-12-08T11:23:50.611Z,5.63
2022-12-08T11:26:27.689Z,5.30
2022-12-08T11:28:57.550Z,5.13
2022-12-08T11:31:30.604Z,5.40
2022-12-08T11:33:58.924Z,5.30
2022-12-08T11:36:29.859Z,5.73
2022-12-08T11:39:00.829Z,4.93
2022-12-08T11:41:32.621Z,4.40
2022-12-08T11:44:06.963Z,5.10
2022-12-08T11:46:38.508Z,4.93
2022-12-08T11:49:10.699Z,6.13
2022-12-08T11:51:41.018Z,5.60
2022-12-08T11:54:20.942Z,5.80
2022-12-08T11:56:50.879Z,4.87
2022-12-08T11:59:25.521Z,4.40
2022-12-08T12:01:54.116Z,4.50
2022-12-08T12:04:26.726Z,4.47
2022-12-08T12:07:37.949Z,4.03
2022-12-08T12:10:42.678Z,4.77
2022-12-08T12:13:29.807Z,4.33
2022-12-08T12:16:21.609Z,4.20
2022-12-08T12:18:52.750Z,4.50
2022-12-08T12:21:23.496Z,3.97
2022-12-08T12:23:55.622Z,4.00
2022-12-08T12:26:25.367Z,4.33
2022-12-08T12:28:56.162Z,4.40
2022-12-08T12:31:27.229Z,4.07
2022-12-08T12:33:58.790Z,4.30
2022-12-08T12:36:27.110Z,4.20
2022-12-08T12:39:04.058Z,5.23
2022-12-08T12:41:39.259Z,4.50
2022-12-08T12:44:45.849Z,4.50
2022-12-08T12:47:55.824Z,4.33
2022-12-08T12:50:43.803Z,4.07
2022-12-08T12:53:45.246Z,4.50
2022-12-08T12:56:49.706Z,4.27
2022-12-08T12:59:31.371Z,5.33
2022-12-08T13:01:59.775Z,4.30
2022-12-08T13:04:35.672Z,4.57
2022-12-08T13:07:04.453Z,3.73
2022-12-08T13:09:35.777Z,4.03
2022-12-08T13:12:10.793Z,3.83
2022-12-08T13:14:47.519Z,4.00
2022-12-08T13:17:30.380Z,3.47
2022-12-08T13:20:01.561Z,3.80
2022-12-08T13:22:51.826Z,3.70
2022-12-08T13:25:48.831Z,3.20
2022-12-08T13:28:21.002Z,3.60
2022-12-08T13:30:50.752Z,3.00
2022-12-08T13:33:22.832Z,3.47
2022-12-08T13:36:14.682Z,4.27
2022-12-08T13:38:45.299Z,3.70
2022-12-08T13:41:19.118Z,4.00
2022-12-08T13:44:20.574Z,4.50
2022-12-08T13:47:09.917Z,3.10
2022-12-08T13:56:51.426Z,3.27
2022-12-08T13:58:26.990Z,2.90
2022-12-08T14:00:59.743Z,3.27
2022-12-08T14:04:22.046Z,3.27
2022-12-08T14:06:44.757Z,2.60
2022-12-08T14:09:16.148Z,4.03
2022-12-08T14:11:54.794Z,3.37
2022-12-08T14:15:00.615Z,3.23
2022-12-08T14:17:17.473Z,2.80
2022-12-08T14:19:48.389Z,3.20
2022-12-08T14:22:19.741Z,3.23
2022-12-08T14:24:51.220Z,3.20
2022-12-08T14:27:23.114Z,4.07
2022-12-08T14:29:52.970Z,3.17
2022-12-08T14:32:27.381Z,3.60
2022-12-08T14:35:01.122Z,3.43
2022-12-08T14:37:31.435Z,3.23
2022-12-08T14:40:03.533Z,3.30
2022-12-08T14:42:32.207Z,3.23
2022-12-08T14:45:03.215Z,3.70
2022-12-08T14:47:33.477Z,3.70
2022-12-08T14:50:03.224Z,3.67
2022-12-08T14:52:32.268Z,3.37
2022-12-08T14:55:02.061Z,3.03
2022-12-08T14:57:35.172Z,3.77
2022-12-08T15:00:12.185Z,3.40
2022-12-08T15:02:45.922Z,4.00
2022-12-08T15:05:17.130Z,4.10
2022-12-08T15:07:50.842Z,3.23
2022-12-08T15:10:26.876Z,4.23
2022-12-08T15:13:00.766Z,4.70
2022-12-08T15:15:32.055Z,4.00
2022-12-08T15:18:08.099Z,3.77
2022-12-08T15:20:42.485Z,3.30
2022-12-08T15:23:21.841Z,3.20
2022-12-08T15:25:52.041Z,3.40
2022-12-08T15:28:26.645Z,3.93
2022-12-08T15:30:58.786Z,4.00
2022-12-08T15:33:27.777Z,3.70
2022-12-08T15:35:56.220Z,4.00
2022-12-08T15:38:26.430Z,3.37
2022-12-08T15:40:56.694Z,3.50
2022-12-08T15:43:25.291Z,3.73
2022-12-08T15:45:59.451Z,3.20
2022-12-08T15:48:30.090Z,3.57
2022-12-08T15:50:58.631Z,2.90
2022-12-08T15:53:27.029Z,2.93
2022-12-08T15:58:54.244Z,2.80
2022-12-08T16:01:24.602Z,3.20
2022-12-08T16:07:19.630Z,2.80
2022-12-08T16:09:32.781Z,2.83
2022-12-08T16:12:19.854Z,2.67
2022-12-08T16:17:36.691Z,2.97
2022-12-08T16:20:10.320Z,3.10
2022-12-08T16:23:03.105Z,3.20
2022-12-08T16:25:28.777Z,2.93
2022-12-08T16:28:29.591Z,3.20
2022-12-08T16:30:51.574Z,3.03
2022-12-08T16:33:19.722Z,3.30
2022-12-08T16:35:48.020Z,3.97
2022-12-08T16:38:16.870Z,4.80
2022-12-08T16:41:04.270Z,3.17
2022-12-08T16:43:35.369Z,2.80
2022-12-08T16:46:04.531Z,2.97
2022-12-08T16:48:32.862Z,3.40
2022-12-08T16:51:00.917Z,3.00
2022-12-08T16:53:29.035Z,3.40
2022-12-08T16:55:57.138Z,3.87
2022-12-08T16:58:25.264Z,3.20
2022-12-08T17:00:54.809Z,3.83
2022-12-08T17:03:22.985Z,4.13
2022-12-08T17:05:51.832Z,4.00
2022-12-08T17:08:20.003Z,4.30
2022-12-08T17:11:07.136Z,4.47
2022-12-08T17:13:35.857Z,5.10
2022-12-08T17:16:09.441Z,4.67
2022-12-08T17:18:38.271Z,5.30
2022-12-08T17:21:11.390Z,4.73
2022-12-08T17:23:39.984Z,4.47
2022-12-08T17:26:09.254Z,4.57
2022-12-08T17:28:59.367Z,4.47
2022-12-08T17:31:29.996Z,4.40
2022-12-08T17:33:59.627Z,5.13
2022-12-08T17:36:27.861Z,5.00
2022-12-08T17:38:56.153Z,5.73
2022-12-08T17:41:24.384Z,5.40
2022-12-08T17:43:52.519Z,5.97
2022-12-08T17:46:21.783Z,5.90
2022-12-08T17:48:51.662Z,6.60
2022-12-08T17:51:20.186Z,7.23
2022-12-08T17:53:48.415Z,6.80
2022-12-08T17:56:18.653Z,7.50
2022-12-08T17:58:51.325Z,6.73
2022-12-08T18:01:23.042Z,7.23
2022-12-08T18:03:53.129Z,8.43
2022-12-08T18:06:23.685Z,6.33
2022-12-08T18:08:53.895Z,8.10
2022-12-08T18:11:22.551Z,8.37
2022-12-08T18:13:51.406Z,7.63
2022-12-08T18:16:20.387Z,7.93
2022-12-08T18:18:49.385Z,7.20
2022-12-08T18:21:23.303Z,7.20
2022-12-08T18:23:52.087Z,7.07
2022-12-08T18:26:22.374Z,6.80
2022-12-08T18:28:50.571Z,6.43
2022-12-08T18:31:20.728Z,8.43
2022-12-08T18:33:50.315Z,7.73
2022-12-08T18:36:21.936Z,8.20
2022-12-08T18:38:50.396Z,7.73
2022-12-08T18:41:20.625Z,9.37
2022-12-08T18:43:49.664Z,8.77
2022-12-08T18:46:17.948Z,8.67
2022-12-08T18:48:47.793Z,8.07
2022-12-08T18:51:17.481Z,7.73
2022-12-08T18:53:47.935Z,8.97
2022-12-08T18:56:23.295Z,9.17
2022-12-08T18:58:51.525Z,9.63
2022-12-08T19:01:19.943Z,8.80
2022-12-08T19:04:12.174Z,9.30
2022-12-08T19:06:39.147Z,8.67
2022-12-08T19:09:09.247Z,9.60
2022-12-08T19:11:37.668Z,11.23
2022-12-08T19:14:05.880Z,9.47
2022-12-08T19:16:34.489Z,8.67
2022-12-08T19:19:03.148Z,9.33
2022-12-08T19:21:31.945Z,8.13
2022-12-08T19:24:00.472Z,9.00
2022-12-08T19:26:30.138Z,9.13
2022-12-08T19:28:59.030Z,8.37
2022-12-08T19:31:27.593Z,9.77
2022-12-08T19:33:56.216Z,7.93
2022-12-08T19:36:26.023Z,7.87
2022-12-08T19:39:12.070Z,7.40
2022-12-08T19:41:59.208Z,7.53
2022-12-08T19:44:46.683Z,6.80
2022-12-08T19:47:15.105Z,6.23
2022-12-08T19:49:43.419Z,6.83
2022-12-08T19:52:11.988Z,6.40
2022-12-08T19:54:40.400Z,6.40
2022-12-08T19:57:11.580Z,6.23
2022-12-08T19:59:39.841Z,7.13
2022-12-08T20:02:08.323Z,6.63
2022-12-08T20:04:36.911Z,6.37
2022-12-08T20:07:05.521Z,6.70
2022-12-08T20:09:34.853Z,7.53
2022-12-08T20:12:03.285Z,7.50
2022-12-08T20:14:33.210Z,6.03
2022-12-08T20:17:01.958Z,6.03
2022-12-08T20:19:31.050Z,5.70
2022-12-08T20:22:02.030Z,5.23
2022-12-08T20:24:31.108Z,5.40
2022-12-08T20:26:59.209Z,5.53
2022-12-08T20:29:27.394Z,5.53
2022-12-08T20:32:00.151Z,6.10
2022-12-08T20:34:28.608Z,5.97
2022-12-08T20:36:56.900Z,5.53
2022-12-08T20:39:26.439Z,5.83
2022-12-08T20:41:59.272Z,5.97
2022-12-08T20:44:30.984Z,6.07
2022-12-08T20:47:00.714Z,5.40
2022-12-08T20:49:34.723Z,5.43
2022-12-08T20:52:03.843Z,5.80
2022-12-08T20:54:33.132Z,5.47
2022-12-08T20:57:04.138Z,5.37
2022-12-08T20:59:32.905Z,5.77
2022-12-08T21:02:03.242Z,5.40
2022-12-08T21:04:32.040Z,5.30
2022-12-08T21:07:00.738Z,5.80
2022-12-08T21:09:29.980Z,5.23
2022-12-08T21:12:00.153Z,5.50
2022-12-08T21:14:28.784Z,5.60
2022-12-08T21:16:57.156Z,5.53
2022-12-08T21:19:30.102Z,5.40
2022-12-08T21:22:00.045Z,5.43
2022-12-08T21:24:33.777Z,5.23
2022-12-08T21:27:03.000Z,5.17
2022-12-08T21:29:31.277Z,4.87
2022-12-08T21:32:00.340Z,5.47
2022-12-08T21:34:35.218Z,4.63
2022-12-08T21:37:04.398Z,4.63
2022-12-08T21:39:33.055Z,5.03
2022-12-08T21:42:34.138Z,4.27
2022-12-08T21:45:02.884Z,5.50
2022-12-08T21:47:32.779Z,4.20
2022-12-08T21:50:03.350Z,4.07
2022-12-08T21:52:32.549Z,4.73
2022-12-08T21:55:01.092Z,4.27
2022-12-08T21:57:30.059Z,4.97
2022-12-08T22:00:03.373Z,4.20
2022-12-08T22:02:53.202Z,4.20
2022-12-08T22:05:23.509Z,4.57
2022-12-08T22:07:52.389Z,4.27
2022-12-08T22:10:23.157Z,4.30
2022-12-08T22:12:52.691Z,4.60
2022-12-08T22:15:23.078Z,4.30
2022-12-08T22:17:51.867Z,4.43
2022-12-08T22:20:22.665Z,4.33
2022-12-08T22:22:52.043Z,4.20
2022-12-08T22:25:21.847Z,4.73
2022-12-08T22:27:51.287Z,5.00
2022-12-08T22:30:21.822Z,4.50
2022-12-08T22:32:50.652Z,4.73
2022-12-08T22:35:20.789Z,4.53
2022-12-08T22:37:51.140Z,4.53
2022-12-08T22:40:20.150Z,5.47
2022-12-08T22:42:48.497Z,5.00
2022-12-08T22:45:16.811Z,5.00
2022-12-08T22:47:45.997Z,5.17
2022-12-08T22:50:16.100Z,5.10
2022-12-08T22:52:44.368Z,5.00
2022-12-08T22:55:15.455Z,4.83
2022-12-08T22:57:50.213Z,4.73
2022-12-08T23:00:20.802Z,5.23
2022-12-08T23:02:49.222Z,5.70
2022-12-08T23:05:17.997Z,5.37
2022-12-08T23:07:46.541Z,5.37
2022-12-08T23:10:18.374Z,5.13
2022-12-08T23:12:46.819Z,5.10
2022-12-08T23:15:15.535Z,4.70
2022-12-08T23:17:44.275Z,5.30
2022-12-08T23:20:13.881Z,5.53
2022-12-08T23:22:42.814Z,5.30
2022-12-08T23:25:11.355Z,4.80
2022-12-08T23:27:41.237Z,5.67
2022-12-08T23:30:11.206Z,5.00
2022-12-08T23:32:40.959Z,6.03
2022-12-08T23:35:10.522Z,5.63
2022-12-08T23:37:39.391Z,5.83
2022-12-08T23:40:13.105Z,5.77
2022-12-08T23:42:43.310Z,5.63
2022-12-08T23:45:12.648Z,5.70
2022-12-08T23:47:41.164Z,6.37
2022-12-08T23:50:12.345Z,6.23
2022-12-08T23:52:41.058Z,6.27
2022-12-08T23:55:11.323Z,6.57
2022-12-08T23:57:40.072Z,6.40
